Time;durP1;ratioP1;P1;durP2;ratioP2;P2;SDS_P1;SDS_P2;PMS_P1;PMS_P2;Temp;Humidity;BMP_temperature;BMP_pressure;BME280_temperature;BME280_humidity;BME280_pressure;Samples;Min_cycle;Max_cycle;Signal;HPM_P1;HPM_P2
2022/01/18 21:11:06;;;;;;;26.15;15.18;;;4.70;99.90;;;;;;4990785;28;20058;-79
2022/01/18 21:13:32;;;;;;;29.23;15.10;;;4.70;99.90;;;;;;4959481;28;20124;-79
2022/01/18 21:15:58;;;;;;;19.48;13.60;;;4.60;99.90;;;;;;5006981;28;20163;-78
2022/01/18 21:18:26;;;;;;;22.40;14.63;;;4.60;99.90;;;;;;4983079;28;20528;-78
2022/01/18 21:20:53;;;;;;;22.58;14.27;;;4.60;99.90;;;;;;4995398;28;20042;-91
2022/01/18 21:23:19;;;;;;;22.60;15.35;;;4.60;99.90;;;;;;5021573;28;20037;-91
2022/01/18 21:25:45;;;;;;;22.92;13.68;;;4.60;99.90;;;;;;5016491;28;20030;-91
2022/01/18 21:28:10;;;;;;;23.27;14.98;;;4.70;99.90;;;;;;5015230;28;20145;-91
2022/01/18 21:30:36;;;;;;;22.85;16.05;;;4.70;99.90;;;;;;5016360;28;20041;-91
2022/01/18 21:33:07;;;;;;;22.13;15.52;;;4.70;99.90;;;;;;5015298;28;20038;-91
2022/01/18 21:35:33;;;;;;;23.45;15.13;;;4.60;99.90;;;;;;5019654;28;20116;-91
2022/01/18 21:37:59;;;;;;;22.45;15.73;;;4.70;99.90;;;;;;5017506;28;20041;-91
2022/01/18 21:40:26;;;;;;;25.77;15.98;;;4.70;99.90;;;;;;5012699;28;20037;-91
2022/01/18 21:42:52;;;;;;;23.10;16.80;;;4.70;99.90;;;;;;5012924;28;20425;-91
2022/01/18 21:45:18;;;;;;;29.08;19.30;;;4.70;99.90;;;;;;5014432;28;20041;-91
2022/01/18 21:47:44;;;;;;;27.35;18.77;;;4.70;99.90;;;;;;5000909;28;20037;-91
2022/01/18 21:50:13;;;;;;;29.08;16.80;;;4.70;99.90;;;;;;5016103;28;20470;-91
2022/01/18 21:52:42;;;;;;;22.10;14.85;;;4.70;99.90;;;;;;5021465;28;20083;-91
2022/01/18 21:55:08;;;;;;;30.60;16.92;;;4.70;99.90;;;;;;4997051;28;20275;-91
2022/01/18 21:57:35;;;;;;;23.63;15.73;;;4.70;99.90;;;;;;5002034;28;20049;-91
2022/01/18 22:00:02;;;;;;;23.70;16.38;;;4.70;99.90;;;;;;4992144;28;20033;-78
2022/01/18 22:02:28;;;;;;;26.27;16.60;;;4.70;99.90;;;;;;5006932;28;20041;-79
2022/01/18 22:04:54;;;;;;;25.67;16.27;;;4.70;99.90;;;;;;4989833;28;20041;-78
2022/01/18 22:07:20;;;;;;;23.33;16.90;;;4.70;99.90;;;;;;4976086;28;20560;-82
2022/01/18 22:09:46;;;;;;;24.65;17.15;;;4.70;99.90;;;;;;4993352;28;20457;-89
2022/01/18 22:12:12;;;;;;;28.65;15.73;;;4.70;99.90;;;;;;5023637;28;20054;-89
2022/01/18 22:14:38;;;;;;;26.55;17.02;;;4.70;99.90;;;;;;5010488;28;20081;-89
2022/01/18 22:17:04;;;;;;;27.33;17.27;;;4.70;99.90;;;;;;5010395;28;20431;-90
2022/01/18 22:19:31;;;;;;;22.63;13.68;;;4.70;99.90;;;;;;5009259;28;20120;-90
2022/01/18 22:21:56;;;;;;;28.52;17.73;;;4.70;99.90;;;;;;5007079;28;20099;-90
2022/01/18 22:24:22;;;;;;;23.55;17.02;;;4.80;99.90;;;;;;5004288;28;20046;-90
2022/01/18 22:26:48;;;;;;;29.70;15.30;;;4.70;99.90;;;;;;5003762;28;20446;-89
2022/01/18 22:29:13;;;;;;;25.67;16.60;;;4.70;99.90;;;;;;5005446;28;20429;-87
2022/01/18 22:31:39;;;;;;;25.83;17.20;;;4.80;99.90;;;;;;4986246;28;20065;-89
2022/01/18 22:34:05;;;;;;;23.50;16.10;;;4.70;99.90;;;;;;4988900;28;20506;-89
2022/01/18 22:36:31;;;;;;;27.45;17.73;;;4.70;99.90;;;;;;5003578;28;20120;-78
2022/01/18 22:38:56;;;;;;;35.33;17.85;;;4.70;99.90;;;;;;4967064;28;20038;-78
2022/01/18 22:41:54;;;;;;;26.60;17.60;;;4.70;99.90;;;;;;5005531;28;20157;-89
2022/01/18 22:44:09;;;;;;;26.05;15.52;;;4.70;99.90;;;;;;5001964;28;20049;-88
2022/01/18 22:46:35;;;;;;;28.55;17.38;;;4.70;99.90;;;;;;4985879;28;20042;-87
2022/01/18 22:49:00;;;;;;;25.05;16.90;;;4.70;99.90;;;;;;4989078;28;20041;-88
2022/01/18 22:51:26;;;;;;;24.00;17.63;;;4.70;99.90;;;;;;5003425;28;20042;-88
2022/01/18 22:53:52;;;;;;;25.27;17.90;;;4.70;99.90;;;;;;5004062;28;20116;-88
2022/01/18 22:56:18;;;;;;;31.50;19.38;;;4.70;99.90;;;;;;4988207;28;20483;-88
2022/01/18 22:58:43;;;;;;;34.55;19.05;;;4.70;99.90;;;;;;5002014;28;20041;-88
2022/01/18 23:01:11;;;;;;;20.95;15.75;;;4.70;99.90;;;;;;4977699;28;20050;-88
2022/01/18 23:03:37;;;;;;;19.77;14.40;;;4.70;99.90;;;;;;5004276;28;20262;-89
2022/01/18 23:06:03;;;;;;;21.30;14.95;;;4.70;99.90;;;;;;4985879;28;20037;-88
2022/01/18 23:08:29;;;;;;;26.80;16.13;;;4.70;99.90;;;;;;4989651;28;20774;-88
2022/01/18 23:10:57;;;;;;;24.02;16.50;;;4.70;99.90;;;;;;4984815;28;20054;-87
2022/01/18 23:13:26;;;;;;;28.08;16.45;;;4.70;99.90;;;;;;5004207;28;20058;-89
2022/01/18 23:16:02;;;;;;;21.60;15.32;;;4.70;99.90;;;;;;4986639;28;20153;-88
2022/01/18 23:18:28;;;;;;;27.88;17.50;;;4.70;99.90;;;;;;4968398;28;20049;-88
2022/01/18 23:20:55;;;;;;;28.33;16.23;;;4.60;99.90;;;;;;5004861;28;20042;-78
2022/01/18 23:23:21;;;;;;;26.13;14.82;;;4.70;99.90;;;;;;4969450;28;20037;-78
2022/01/18 23:25:47;;;;;;;26.45;15.77;;;4.60;99.90;;;;;;4969523;28;20381;-78
2022/01/18 23:28:14;;;;;;;20.77;13.55;;;4.60;99.90;;;;;;4986998;28;20049;-78
2022/01/18 23:30:40;;;;;;;24.58;15.35;;;4.60;99.90;;;;;;5001460;28;20049;-88
2022/01/18 23:33:07;;;;;;;25.38;14.85;;;4.70;99.90;;;;;;4970552;28;20042;-78
2022/01/18 23:35:35;;;;;;;23.90;14.32;;;4.60;99.90;;;;;;5002856;28;20494;-78
2022/01/18 23:38:06;;;;;;;21.02;12.18;;;4.60;99.90;;;;;;4968422;28;20085;-78
2022/01/18 23:43:16;;;;;;;21.45;14.05;;;4.70;99.90;;;;;;5003252;28;20049;-78
2022/01/18 23:45:42;;;;;;;20.80;14.38;;;4.60;99.90;;;;;;5015932;28;20045;-78
2022/01/18 23:48:08;;;;;;;22.70;16.38;;;4.60;99.90;;;;;;4972229;28;20045;-77
2022/01/18 23:50:34;;;;;;;27.02;15.82;;;4.60;99.90;;;;;;5003058;28;20038;-78
2022/01/18 23:53:00;;;;;;;17.85;11.65;;;4.50;99.90;;;;;;4985945;28;20533;-78
2022/01/18 23:55:26;;;;;;;20.25;12.35;;;4.50;99.90;;;;;;4967938;28;20157;-78
2022/01/18 23:57:52;;;;;;;17.60;11.60;;;4.60;99.90;;;;;;4985159;28;20053;-78
